sensor_id;sensor_type;location;lat;lon;timestamp;pressure;altitude;pressure_sealevel;temperature
34961;BMP280;30789;52.030;7.110;2022-10-16T00:00:09;100172.66;;;14.05
34961;BMP280;30789;52.030;7.110;2022-10-16T00:02:35;100167.16;;;14.11
34961;BMP280;30789;52.030;7.110;2022-10-16T00:05:03;100174.44;;;14.22
34961;BMP280;30789;52.030;7.110;2022-10-16T00:07:30;100174.34;;;14.06
34961;BMP280;30789;52.030;7.110;2022-10-16T00:09:56;100176.78;;;14.09
34961;BMP280;30789;52.030;7.110;2022-10-16T00:12:23;100167.44;;;14.05
34961;BMP280;30789;52.030;7.110;2022-10-16T00:14:49;100167.72;;;14.18
34961;BMP280;30789;52.030;7.110;2022-10-16T00:17:15;100160.81;;;14.17
34961;BMP280;30789;52.030;7.110;2022-10-16T00:19:42;100174.34;;;14.06
34961;BMP280;30789;52.030;7.110;2022-10-16T00:22:10;100176.50;;;13.97
34961;BMP280;30789;52.030;7.110;2022-10-16T00:24:36;100175.41;;;14.02
34961;BMP280;30789;52.030;7.110;2022-10-16T00:27:03;100178.88;;;13.84
34961;BMP280;30789;52.030;7.110;2022-10-16T00:29:29;100176.13;;;13.87
34961;BMP280;30789;52.030;7.110;2022-10-16T00:31:56;100179.41;;;13.91
34961;BMP280;30789;52.030;7.110;2022-10-16T00:34:22;100182.44;;;14.00
34961;BMP280;30789;52.030;7.110;2022-10-16T00:36:48;100182.22;;;13.86
34961;BMP280;30789;52.030;7.110;2022-10-16T00:39:16;100180.97;;;13.76
34961;BMP280;30789;52.030;7.110;2022-10-16T00:41:43;100177.19;;;13.83
34961;BMP280;30789;52.030;7.110;2022-10-16T00:44:42;100175.16;;;13.71
34961;BMP280;30789;52.030;7.110;2022-10-16T00:47:09;100171.91;;;13.66
34961;BMP280;30789;52.030;7.110;2022-10-16T00:49:36;100164.75;;;13.71
34961;BMP280;30789;52.030;7.110;2022-10-16T00:52:03;100167.69;;;13.63
34961;BMP280;30789;52.030;7.110;2022-10-16T00:54:32;100170.06;;;13.68
34961;BMP280;30789;52.030;7.110;2022-10-16T00:57:00;100165.94;;;13.64
34961;BMP280;30789;52.030;7.110;2022-10-16T00:59:30;100167.97;;;13.57
34961;BMP280;30789;52.030;7.110;2022-10-16T01:01:57;100165.22;;;13.60
34961;BMP280;30789;52.030;7.110;2022-10-16T01:04:25;100176.06;;;13.70
34961;BMP280;30789;52.030;7.110;2022-10-16T01:07:06;100171.25;;;13.61
34961;BMP280;30789;52.030;7.110;2022-10-16T01:09:45;100169.31;;;13.66
34961;BMP280;30789;52.030;7.110;2022-10-16T01:12:16;100173.31;;;13.73
34961;BMP280;30789;52.030;7.110;2022-10-16T01:14:48;100179.84;;;13.63
34961;BMP280;30789;52.030;7.110;2022-10-16T01:17:18;100175.50;;;13.63
34961;BMP280;30789;52.030;7.110;2022-10-16T01:20:02;100164.94;;;13.66
34961;BMP280;30789;52.030;7.110;2022-10-16T01:22:38;100178.50;;;13.73
34961;BMP280;30789;52.030;7.110;2022-10-16T01:25:11;100174.38;;;13.69
34961;BMP280;30789;52.030;7.110;2022-10-16T01:27:45;100173.50;;;13.87
34961;BMP280;30789;52.030;7.110;2022-10-16T01:30:16;100167.06;;;13.96
34961;BMP280;30789;52.030;7.110;2022-10-16T01:32:48;100162.34;;;13.85
34961;BMP280;30789;52.030;7.110;2022-10-16T01:35:21;100162.78;;;13.76
34961;BMP280;30789;52.030;7.110;2022-10-16T01:37:51;100160.19;;;13.76
34961;BMP280;30789;52.030;7.110;2022-10-16T01:40:22;100166.50;;;13.89
34961;BMP280;30789;52.030;7.110;2022-10-16T01:42:53;100169.84;;;13.91
34961;BMP280;30789;52.030;7.110;2022-10-16T01:45:21;100168.94;;;13.92
34961;BMP280;30789;52.030;7.110;2022-10-16T01:47:49;100164.94;;;13.85
34961;BMP280;30789;52.030;7.110;2022-10-16T01:50:18;100159.38;;;13.93
34961;BMP280;30789;52.030;7.110;2022-10-16T01:52:48;100155.53;;;13.82
34961;BMP280;30789;52.030;7.110;2022-10-16T01:55:20;100160.25;;;13.74
34961;BMP280;30789;52.030;7.110;2022-10-16T01:57:50;100165.44;;;13.93
34961;BMP280;30789;52.030;7.110;2022-10-16T02:00:19;100161.16;;;13.73
34961;BMP280;30789;52.030;7.110;2022-10-16T02:02:48;100162.16;;;13.71
34961;BMP280;30789;52.030;7.110;2022-10-16T02:05:19;100168.81;;;13.58
34961;BMP280;30789;52.030;7.110;2022-10-16T02:07:47;100167.91;;;13.59
34961;BMP280;30789;52.030;7.110;2022-10-16T02:10:14;100164.31;;;13.80
34961;BMP280;30789;52.030;7.110;2022-10-16T02:12:45;100171.97;;;13.83
34961;BMP280;30789;52.030;7.110;2022-10-16T02:15:14;100171.03;;;14.03
34961;BMP280;30789;52.030;7.110;2022-10-16T02:17:40;100170.56;;;13.95
34961;BMP280;30789;52.030;7.110;2022-10-16T02:20:08;100170.28;;;14.01
34961;BMP280;30789;52.030;7.110;2022-10-16T02:22:36;100172.09;;;13.99
34961;BMP280;30789;52.030;7.110;2022-10-16T02:25:07;100169.44;;;14.00
34961;BMP280;30789;52.030;7.110;2022-10-16T02:27:40;100174.84;;;13.96
34961;BMP280;30789;52.030;7.110;2022-10-16T02:30:14;100176.75;;;13.92
34961;BMP280;30789;52.030;7.110;2022-10-16T02:32:46;100174.34;;;13.88
34961;BMP280;30789;52.030;7.110;2022-10-16T02:35:15;100178.41;;;14.12
34961;BMP280;30789;52.030;7.110;2022-10-16T02:37:44;100185.66;;;14.05
34961;BMP280;30789;52.030;7.110;2022-10-16T02:40:12;100182.66;;;13.96
34961;BMP280;30789;52.030;7.110;2022-10-16T02:42:39;100183.84;;;14.07
34961;BMP280;30789;52.030;7.110;2022-10-16T02:45:08;100184.25;;;13.98
34961;BMP280;30789;52.030;7.110;2022-10-16T02:47:36;100180.06;;;13.96
34961;BMP280;30789;52.030;7.110;2022-10-16T02:50:03;100184.81;;;14.05
34961;BMP280;30789;52.030;7.110;2022-10-16T02:52:30;100184.16;;;14.18
34961;BMP280;30789;52.030;7.110;2022-10-16T02:54:56;100192.75;;;14.02
34961;BMP280;30789;52.030;7.110;2022-10-16T02:57:23;100181.22;;;14.07
34961;BMP280;30789;52.030;7.110;2022-10-16T02:59:49;100183.44;;;14.15
34961;BMP280;30789;52.030;7.110;2022-10-16T03:02:15;100172.59;;;14.07
34961;BMP280;30789;52.030;7.110;2022-10-16T03:04:43;100165.97;;;14.18
34961;BMP280;30789;52.030;7.110;2022-10-16T03:07:10;100172.97;;;14.16
34961;BMP280;30789;52.030;7.110;2022-10-16T03:09:36;100177.34;;;14.16
34961;BMP280;30789;52.030;7.110;2022-10-16T03:12:03;100175.13;;;14.08
34961;BMP280;30789;52.030;7.110;2022-10-16T03:14:30;100168.00;;;14.12
34961;BMP280;30789;52.030;7.110;2022-10-16T03:16:56;100171.75;;;14.06
34961;BMP280;30789;52.030;7.110;2022-10-16T03:19:22;100181.53;;;14.01
34961;BMP280;30789;52.030;7.110;2022-10-16T03:21:50;100195.75;;;14.11
34961;BMP280;30789;52.030;7.110;2022-10-16T03:24:17;100190.78;;;13.88
34961;BMP280;30789;52.030;7.110;2022-10-16T03:26:43;100197.25;;;13.98
34961;BMP280;30789;52.030;7.110;2022-10-16T03:29:10;100191.19;;;13.98
34961;BMP280;30789;52.030;7.110;2022-10-16T03:31:36;100189.78;;;14.09
34961;BMP280;30789;52.030;7.110;2022-10-16T03:34:03;100178.91;;;14.01
34961;BMP280;30789;52.030;7.110;2022-10-16T03:36:29;100185.31;;;13.94
34961;BMP280;30789;52.030;7.110;2022-10-16T03:38:57;100183.91;;;14.06
34961;BMP280;30789;52.030;7.110;2022-10-16T03:41:24;100181.63;;;14.17
34961;BMP280;30789;52.030;7.110;2022-10-16T03:43:50;100178.13;;;14.18
34961;BMP280;30789;52.030;7.110;2022-10-16T03:46:17;100181.81;;;13.95
34961;BMP280;30789;52.030;7.110;2022-10-16T03:48:43;100187.91;;;14.13
34961;BMP280;30789;52.030;7.110;2022-10-16T03:51:09;100185.22;;;14.14
34961;BMP280;30789;52.030;7.110;2022-10-16T03:53:36;100187.19;;;14.09
34961;BMP280;30789;52.030;7.110;2022-10-16T03:56:04;100187.84;;;14.14
34961;BMP280;30789;52.030;7.110;2022-10-16T03:58:31;100190.50;;;14.13
34961;BMP280;30789;52.030;7.110;2022-10-16T04:00:57;100191.34;;;13.95
34961;BMP280;30789;52.030;7.110;2022-10-16T04:03:24;100196.84;;;14.07
34961;BMP280;30789;52.030;7.110;2022-10-16T04:05:50;100191.69;;;14.06
34961;BMP280;30789;52.030;7.110;2022-10-16T04:08:17;100201.47;;;14.01
34961;BMP280;30789;52.030;7.110;2022-10-16T04:10:43;100194.88;;;13.94
34961;BMP280;30789;52.030;7.110;2022-10-16T04:13:11;100201.53;;;13.80
34961;BMP280;30789;52.030;7.110;2022-10-16T04:15:39;100197.13;;;14.01
34961;BMP280;30789;52.030;7.110;2022-10-16T04:18:05;100204.97;;;14.00
34961;BMP280;30789;52.030;7.110;2022-10-16T04:20:32;100192.34;;;13.92
34961;BMP280;30789;52.030;7.110;2022-10-16T04:22:59;100194.66;;;13.98
34961;BMP280;30789;52.030;7.110;2022-10-16T04:25:25;100199.44;;;13.89
34961;BMP280;30789;52.030;7.110;2022-10-16T04:27:52;100199.28;;;13.73
34961;BMP280;30789;52.030;7.110;2022-10-16T04:30:21;100205.81;;;13.81
34961;BMP280;30789;52.030;7.110;2022-10-16T04:32:47;100213.41;;;13.86
34961;BMP280;30789;52.030;7.110;2022-10-16T04:35:14;100214.97;;;13.90
34961;BMP280;30789;52.030;7.110;2022-10-16T04:37:41;100220.69;;;13.97
34961;BMP280;30789;52.030;7.110;2022-10-16T04:40:07;100230.13;;;13.99
34961;BMP280;30789;52.030;7.110;2022-10-16T04:42:34;100232.72;;;13.99
34961;BMP280;30789;52.030;7.110;2022-10-16T04:45:00;100230.41;;;13.93
34961;BMP280;30789;52.030;7.110;2022-10-16T04:47:28;100223.41;;;13.95
34961;BMP280;30789;52.030;7.110;2022-10-16T04:49:55;100231.94;;;14.16
34961;BMP280;30789;52.030;7.110;2022-10-16T04:52:21;100232.78;;;13.98
34961;BMP280;30789;52.030;7.110;2022-10-16T04:54:49;100246.28;;;14.06
34961;BMP280;30789;52.030;7.110;2022-10-16T04:57:16;100249.66;;;14.08
34961;BMP280;30789;52.030;7.110;2022-10-16T04:59:43;100240.94;;;14.09
34961;BMP280;30789;52.030;7.110;2022-10-16T05:02:09;100249.09;;;14.01
34961;BMP280;30789;52.030;7.110;2022-10-16T05:04:37;100249.94;;;14.20
34961;BMP280;30789;52.030;7.110;2022-10-16T05:07:03;100253.16;;;14.26
34961;BMP280;30789;52.030;7.110;2022-10-16T05:09:30;100253.78;;;14.31
34961;BMP280;30789;52.030;7.110;2022-10-16T05:11:56;100248.44;;;14.15
34961;BMP280;30789;52.030;7.110;2022-10-16T05:14:22;100246.22;;;14.26
34961;BMP280;30789;52.030;7.110;2022-10-16T05:16:49;100253.88;;;14.48
34961;BMP280;30789;52.030;7.110;2022-10-16T05:19:16;100258.50;;;14.22
34961;BMP280;30789;52.030;7.110;2022-10-16T05:21:44;100263.75;;;14.21
34961;BMP280;30789;52.030;7.110;2022-10-16T05:24:11;100266.28;;;14.22
34961;BMP280;30789;52.030;7.110;2022-10-16T05:26:37;100271.59;;;14.40
34961;BMP280;30789;52.030;7.110;2022-10-16T05:29:04;100272.91;;;14.30
34961;BMP280;30789;52.030;7.110;2022-10-16T05:31:30;100278.91;;;14.13
34961;BMP280;30789;52.030;7.110;2022-10-16T05:33:58;100282.19;;;14.16
34961;BMP280;30789;52.030;7.110;2022-10-16T05:36:25;100286.34;;;14.20
34961;BMP280;30789;52.030;7.110;2022-10-16T05:38:53;100286.06;;;14.27
34961;BMP280;30789;52.030;7.110;2022-10-16T05:41:19;100296.63;;;14.42
34961;BMP280;30789;52.030;7.110;2022-10-16T05:43:47;100289.00;;;14.19
34961;BMP280;30789;52.030;7.110;2022-10-16T05:46:13;100288.78;;;14.23
34961;BMP280;30789;52.030;7.110;2022-10-16T05:48:40;100287.91;;;14.43
34961;BMP280;30789;52.030;7.110;2022-10-16T05:51:09;100297.72;;;14.18
34961;BMP280;30789;52.030;7.110;2022-10-16T05:53:38;100293.03;;;14.26
34961;BMP280;30789;52.030;7.110;2022-10-16T05:56:07;100299.75;;;14.11
34961;BMP280;30789;52.030;7.110;2022-10-16T05:58:36;100313.31;;;14.18
34961;BMP280;30789;52.030;7.110;2022-10-16T06:01:06;100312.25;;;14.22
34961;BMP280;30789;52.030;7.110;2022-10-16T06:03:33;100319.84;;;14.08
34961;BMP280;30789;52.030;7.110;2022-10-16T06:06:07;100315.56;;;14.26
34961;BMP280;30789;52.030;7.110;2022-10-16T06:08:34;100320.91;;;14.22
34961;BMP280;30789;52.030;7.110;2022-10-16T06:11:01;100326.66;;;14.10
34961;BMP280;30789;52.030;7.110;2022-10-16T06:13:29;100324.97;;;14.28
34961;BMP280;30789;52.030;7.110;2022-10-16T06:15:57;100325.22;;;14.42
34961;BMP280;30789;52.030;7.110;2022-10-16T06:18:24;100335.94;;;14.35
34961;BMP280;30789;52.030;7.110;2022-10-16T06:20:50;100346.63;;;14.29
34961;BMP280;30789;52.030;7.110;2022-10-16T06:23:17;100342.56;;;14.23
34961;BMP280;30789;52.030;7.110;2022-10-16T06:25:43;100347.97;;;14.18
34961;BMP280;30789;52.030;7.110;2022-10-16T06:28:10;100348.88;;;14.17
34961;BMP280;30789;52.030;7.110;2022-10-16T06:30:38;100348.31;;;14.30
34961;BMP280;30789;52.030;7.110;2022-10-16T06:33:04;100360.81;;;14.21
34961;BMP280;30789;52.030;7.110;2022-10-16T06:35:30;100350.13;;;14.28
34961;BMP280;30789;52.030;7.110;2022-10-16T06:37:58;100359.19;;;14.39
34961;BMP280;30789;52.030;7.110;2022-10-16T06:40:24;100362.75;;;14.37
34961;BMP280;30789;52.030;7.110;2022-10-16T06:42:51;100367.06;;;14.17
34961;BMP280;30789;52.030;7.110;2022-10-16T06:45:17;100373.06;;;14.19
34961;BMP280;30789;52.030;7.110;2022-10-16T06:47:45;100383.78;;;14.12
34961;BMP280;30789;52.030;7.110;2022-10-16T06:50:12;100385.88;;;14.04
34961;BMP280;30789;52.030;7.110;2022-10-16T06:52:38;100398.88;;;14.04
34961;BMP280;30789;52.030;7.110;2022-10-16T06:55:05;100390.69;;;14.13
34961;BMP280;30789;52.030;7.110;2022-10-16T06:57:32;100402.69;;;14.15
34961;BMP280;30789;52.030;7.110;2022-10-16T06:59:58;100406.53;;;14.27
34961;BMP280;30789;52.030;7.110;2022-10-16T07:02:25;100411.72;;;14.27
34961;BMP280;30789;52.030;7.110;2022-10-16T07:04:52;100420.06;;;14.34
34961;BMP280;30789;52.030;7.110;2022-10-16T07:07:19;100427.66;;;14.19
34961;BMP280;30789;52.030;7.110;2022-10-16T07:09:45;100431.28;;;14.36
34961;BMP280;30789;52.030;7.110;2022-10-16T07:12:12;100447.16;;;14.09
34961;BMP280;30789;52.030;7.110;2022-10-16T07:14:38;100442.66;;;14.33
34961;BMP280;30789;52.030;7.110;2022-10-16T07:17:04;100447.38;;;14.45
34961;BMP280;30789;52.030;7.110;2022-10-16T07:19:31;100449.88;;;14.47
34961;BMP280;30789;52.030;7.110;2022-10-16T07:21:59;100447.44;;;14.44
34961;BMP280;30789;52.030;7.110;2022-10-16T07:24:25;100456.38;;;14.37
34961;BMP280;30789;52.030;7.110;2022-10-16T07:26:52;100464.84;;;14.42
34961;BMP280;30789;52.030;7.110;2022-10-16T07:29:20;100470.03;;;14.42
34961;BMP280;30789;52.030;7.110;2022-10-16T07:31:47;100471.72;;;14.63
34961;BMP280;30789;52.030;7.110;2022-10-16T07:34:16;100472.97;;;14.73
34961;BMP280;30789;52.030;7.110;2022-10-16T07:36:43;100473.16;;;14.50
34961;BMP280;30789;52.030;7.110;2022-10-16T07:39:10;100479.22;;;14.50
34961;BMP280;30789;52.030;7.110;2022-10-16T07:41:37;100478.97;;;14.75
34961;BMP280;30789;52.030;7.110;2022-10-16T07:44:04;100473.09;;;14.51
34961;BMP280;30789;52.030;7.110;2022-10-16T07:46:31;100483.78;;;14.64
34961;BMP280;30789;52.030;7.110;2022-10-16T07:48:59;100479.09;;;14.72
34961;BMP280;30789;52.030;7.110;2022-10-16T07:51:25;100484.53;;;14.86
34961;BMP280;30789;52.030;7.110;2022-10-16T07:53:52;100473.53;;;14.80
34961;BMP280;30789;52.030;7.110;2022-10-16T07:56:21;100490.22;;;14.76
34961;BMP280;30789;52.030;7.110;2022-10-16T07:58:47;100493.03;;;14.90
34961;BMP280;30789;52.030;7.110;2022-10-16T08:01:16;100492.25;;;14.88
34961;BMP280;30789;52.030;7.110;2022-10-16T08:03:44;100497.81;;;14.80
34961;BMP280;30789;52.030;7.110;2022-10-16T08:06:11;100510.13;;;14.95
34961;BMP280;30789;52.030;7.110;2022-10-16T08:08:37;100508.84;;;14.85
34961;BMP280;30789;52.030;7.110;2022-10-16T08:11:04;100507.44;;;15.16
34961;BMP280;30789;52.030;7.110;2022-10-16T08:13:32;100519.28;;;14.85
34961;BMP280;30789;52.030;7.110;2022-10-16T08:15:59;100521.03;;;15.03
34961;BMP280;30789;52.030;7.110;2022-10-16T08:18:26;100517.53;;;15.23
34961;BMP280;30789;52.030;7.110;2022-10-16T08:20:56;100522.84;;;15.01
34961;BMP280;30789;52.030;7.110;2022-10-16T08:23:23;100524.13;;;15.30
34961;BMP280;30789;52.030;7.110;2022-10-16T08:25:51;100522.72;;;15.42
34961;BMP280;30789;52.030;7.110;2022-10-16T08:28:18;100529.41;;;15.29
34961;BMP280;30789;52.030;7.110;2022-10-16T08:30:46;100522.72;;;15.61
34961;BMP280;30789;52.030;7.110;2022-10-16T08:33:12;100534.38;;;15.71
34961;BMP280;30789;52.030;7.110;2022-10-16T08:35:39;100535.19;;;15.17
34961;BMP280;30789;52.030;7.110;2022-10-16T08:38:06;100541.06;;;15.39
34961;BMP280;30789;52.030;7.110;2022-10-16T08:40:34;100542.59;;;15.43
34961;BMP280;30789;52.030;7.110;2022-10-16T08:43:28;100556.03;;;15.54
34961;BMP280;30789;52.030;7.110;2022-10-16T08:46:19;100569.88;;;15.73
34961;BMP280;30789;52.030;7.110;2022-10-16T08:48:52;100560.78;;;15.63
34961;BMP280;30789;52.030;7.110;2022-10-16T08:51:22;100571.59;;;15.92
34961;BMP280;30789;52.030;7.110;2022-10-16T08:53:53;100583.19;;;16.03
34961;BMP280;30789;52.030;7.110;2022-10-16T08:56:21;100585.00;;;15.84
34961;BMP280;30789;52.030;7.110;2022-10-16T08:58:48;100590.00;;;16.06
34961;BMP280;30789;52.030;7.110;2022-10-16T09:01:17;100595.63;;;16.15
34961;BMP280;30789;52.030;7.110;2022-10-16T09:03:56;100601.28;;;16.41
34961;BMP280;30789;52.030;7.110;2022-10-16T09:06:31;100599.41;;;16.10
34961;BMP280;30789;52.030;7.110;2022-10-16T09:09:16;100604.69;;;16.26
34961;BMP280;30789;52.030;7.110;2022-10-16T09:11:50;100598.06;;;16.18
34961;BMP280;30789;52.030;7.110;2022-10-16T09:14:32;100594.78;;;16.49
34961;BMP280;30789;52.030;7.110;2022-10-16T09:17:18;100607.53;;;16.73
34961;BMP280;30789;52.030;7.110;2022-10-16T09:19:51;100603.53;;;16.14
34961;BMP280;30789;52.030;7.110;2022-10-16T09:22:21;100608.97;;;16.44
34961;BMP280;30789;52.030;7.110;2022-10-16T09:24:54;100614.88;;;16.13
34961;BMP280;30789;52.030;7.110;2022-10-16T09:27:20;100609.72;;;16.29
34961;BMP280;30789;52.030;7.110;2022-10-16T09:29:47;100613.66;;;16.20
34961;BMP280;30789;52.030;7.110;2022-10-16T09:32:22;100612.75;;;16.38
34961;BMP280;30789;52.030;7.110;2022-10-16T09:34:50;100616.81;;;16.27
34961;BMP280;30789;52.030;7.110;2022-10-16T09:37:20;100619.66;;;16.56
34961;BMP280;30789;52.030;7.110;2022-10-16T09:39:50;100622.81;;;16.46
34961;BMP280;30789;52.030;7.110;2022-10-16T09:42:17;100621.66;;;16.51
34961;BMP280;30789;52.030;7.110;2022-10-16T09:44:47;100641.69;;;16.85
34961;BMP280;30789;52.030;7.110;2022-10-16T09:47:19;100639.41;;;16.79
34961;BMP280;30789;52.030;7.110;2022-10-16T09:49:51;100630.88;;;17.41
34961;BMP280;30789;52.030;7.110;2022-10-16T09:52:18;100631.00;;;17.71
34961;BMP280;30789;52.030;7.110;2022-10-16T09:54:50;100643.81;;;17.76
34961;BMP280;30789;52.030;7.110;2022-10-16T09:57:16;100647.63;;;18.32
34961;BMP280;30789;52.030;7.110;2022-10-16T09:59:46;100643.03;;;17.58
34961;BMP280;30789;52.030;7.110;2022-10-16T10:02:14;100643.94;;;17.41
34961;BMP280;30789;52.030;7.110;2022-10-16T10:04:48;100637.13;;;17.55
34961;BMP280;30789;52.030;7.110;2022-10-16T10:07:18;100640.13;;;17.80
34961;BMP280;30789;52.030;7.110;2022-10-16T10:09:46;100648.88;;;17.79
34961;BMP280;30789;52.030;7.110;2022-10-16T10:12:21;100647.66;;;18.16
34961;BMP280;30789;52.030;7.110;2022-10-16T10:14:49;100660.13;;;18.86
34961;BMP280;30789;52.030;7.110;2022-10-16T10:17:18;100653.50;;;18.51
34961;BMP280;30789;52.030;7.110;2022-10-16T10:19:52;100655.09;;;18.23
34961;BMP280;30789;52.030;7.110;2022-10-16T10:22:23;100646.63;;;18.34
34961;BMP280;30789;52.030;7.110;2022-10-16T10:24:59;100654.84;;;19.16
34961;BMP280;30789;52.030;7.110;2022-10-16T10:27:34;100660.22;;;18.71
34961;BMP280;30789;52.030;7.110;2022-10-16T10:30:06;100666.28;;;19.58
34961;BMP280;30789;52.030;7.110;2022-10-16T10:32:43;100658.59;;;19.69
34961;BMP280;30789;52.030;7.110;2022-10-16T10:35:21;100674.66;;;20.18
34961;BMP280;30789;52.030;7.110;2022-10-16T10:38:00;100671.75;;;20.75
34961;BMP280;30789;52.030;7.110;2022-10-16T10:40:42;100664.94;;;20.59
34961;BMP280;30789;52.030;7.110;2022-10-16T10:43:19;100669.16;;;21.13
34961;BMP280;30789;52.030;7.110;2022-10-16T10:45:52;100673.31;;;19.98
34961;BMP280;30789;52.030;7.110;2022-10-16T10:48:38;100665.44;;;19.57
34961;BMP280;30789;52.030;7.110;2022-10-16T10:51:19;100664.47;;;19.58
34961;BMP280;30789;52.030;7.110;2022-10-16T10:53:56;100658.59;;;20.37
34961;BMP280;30789;52.030;7.110;2022-10-16T10:56:47;100664.06;;;21.60
34961;BMP280;30789;52.030;7.110;2022-10-16T11:02:05;100664.72;;;22.00
34961;BMP280;30789;52.030;7.110;2022-10-16T11:04:49;100675.34;;;21.12
34961;BMP280;30789;52.030;7.110;2022-10-16T11:07:21;100675.06;;;20.91
34961;BMP280;30789;52.030;7.110;2022-10-16T11:09:52;100679.63;;;20.62
34961;BMP280;30789;52.030;7.110;2022-10-16T11:12:22;100682.75;;;20.42
34961;BMP280;30789;52.030;7.110;2022-10-16T11:14:56;100684.69;;;19.70
34961;BMP280;30789;52.030;7.110;2022-10-16T11:17:27;100683.00;;;19.13
34961;BMP280;30789;52.030;7.110;2022-10-16T11:19:58;100689.00;;;19.00
34961;BMP280;30789;52.030;7.110;2022-10-16T11:22:32;100685.78;;;18.81
34961;BMP280;30789;52.030;7.110;2022-10-16T11:25:04;100690.13;;;18.96
34961;BMP280;30789;52.030;7.110;2022-10-16T11:27:40;100689.28;;;18.96
34961;BMP280;30789;52.030;7.110;2022-10-16T11:30:14;100686.84;;;19.21
34961;BMP280;30789;52.030;7.110;2022-10-16T11:32:51;100685.53;;;19.00
34961;BMP280;30789;52.030;7.110;2022-10-16T11:35:23;100696.28;;;19.10
34961;BMP280;30789;52.030;7.110;2022-10-16T11:37:53;100692.69;;;19.96
34961;BMP280;30789;52.030;7.110;2022-10-16T11:40:25;100695.03;;;20.27
34961;BMP280;30789;52.030;7.110;2022-10-16T11:42:59;100696.16;;;19.69
34961;BMP280;30789;52.030;7.110;2022-10-16T11:45:33;100704.41;;;20.04
34961;BMP280;30789;52.030;7.110;2022-10-16T11:48:05;100716.81;;;21.59
34961;BMP280;30789;52.030;7.110;2022-10-16T11:50:39;100700.59;;;22.38
34961;BMP280;30789;52.030;7.110;2022-10-16T11:53:14;100704.44;;;23.15
34961;BMP280;30789;52.030;7.110;2022-10-16T11:55:44;100697.19;;;24.06
34961;BMP280;30789;52.030;7.110;2022-10-16T11:58:19;100708.88;;;24.99
34961;BMP280;30789;52.030;7.110;2022-10-16T12:00:53;100713.06;;;23.39
34961;BMP280;30789;52.030;7.110;2022-10-16T12:03:26;100707.81;;;23.83
34961;BMP280;30789;52.030;7.110;2022-10-16T12:06:04;100720.22;;;22.92
34961;BMP280;30789;52.030;7.110;2022-10-16T12:08:35;100721.81;;;20.73
34961;BMP280;30789;52.030;7.110;2022-10-16T12:11:09;100721.25;;;19.73
34961;BMP280;30789;52.030;7.110;2022-10-16T12:13:37;100717.81;;;20.93
34961;BMP280;30789;52.030;7.110;2022-10-16T12:16:06;100714.03;;;20.18
34961;BMP280;30789;52.030;7.110;2022-10-16T12:18:32;100728.56;;;20.90
34961;BMP280;30789;52.030;7.110;2022-10-16T12:20:59;100733.19;;;22.00
34961;BMP280;30789;52.030;7.110;2022-10-16T12:23:31;100727.16;;;21.98
34961;BMP280;30789;52.030;7.110;2022-10-16T12:26:00;100740.75;;;22.76
34961;BMP280;30789;52.030;7.110;2022-10-16T12:28:29;100737.31;;;23.44
34961;BMP280;30789;52.030;7.110;2022-10-16T12:30:57;100730.81;;;24.26
34961;BMP280;30789;52.030;7.110;2022-10-16T12:33:26;100743.88;;;24.59
34961;BMP280;30789;52.030;7.110;2022-10-16T12:35:53;100742.63;;;25.07
34961;BMP280;30789;52.030;7.110;2022-10-16T12:38:26;100745.56;;;24.29
34961;BMP280;30789;52.030;7.110;2022-10-16T12:41:00;100743.41;;;24.11
34961;BMP280;30789;52.030;7.110;2022-10-16T12:43:36;100730.81;;;24.26
34961;BMP280;30789;52.030;7.110;2022-10-16T12:46:18;100735.44;;;25.18
34961;BMP280;30789;52.030;7.110;2022-10-16T12:48:46;100734.31;;;24.47
34961;BMP280;30789;52.030;7.110;2022-10-16T12:51:23;100746.84;;;24.45
34961;BMP280;30789;52.030;7.110;2022-10-16T12:53:58;100744.34;;;25.17
34961;BMP280;30789;52.030;7.110;2022-10-16T12:56:39;100742.72;;;24.20
34961;BMP280;30789;52.030;7.110;2022-10-16T12:59:16;100756.09;;;24.72
34961;BMP280;30789;52.030;7.110;2022-10-16T13:01:56;100752.19;;;24.55
34961;BMP280;30789;52.030;7.110;2022-10-16T13:04:47;100753.25;;;24.09
34961;BMP280;30789;52.030;7.110;2022-10-16T13:07:44;100744.66;;;25.24
34961;BMP280;30789;52.030;7.110;2022-10-16T13:10:21;100754.06;;;25.98
34961;BMP280;30789;52.030;7.110;2022-10-16T13:13:15;100751.38;;;25.07
34961;BMP280;30789;52.030;7.110;2022-10-16T13:15:58;100764.75;;;24.74
34961;BMP280;30789;52.030;7.110;2022-10-16T13:18:34;100758.81;;;23.95
34961;BMP280;30789;52.030;7.110;2022-10-16T13:21:14;100756.22;;;24.38
34961;BMP280;30789;52.030;7.110;2022-10-16T13:23:49;100759.75;;;24.05
34961;BMP280;30789;52.030;7.110;2022-10-16T13:26:25;100766.94;;;24.69
34961;BMP280;30789;52.030;7.110;2022-10-16T13:28:59;100754.00;;;24.00
34961;BMP280;30789;52.030;7.110;2022-10-16T13:31:26;100754.97;;;23.55
34961;BMP280;30789;52.030;7.110;2022-10-16T13:33:56;100753.66;;;23.49
34961;BMP280;30789;52.030;7.110;2022-10-16T13:36:26;100759.66;;;23.73
34961;BMP280;30789;52.030;7.110;2022-10-16T13:39:01;100768.25;;;23.42
34961;BMP280;30789;52.030;7.110;2022-10-16T13:41:32;100776.94;;;23.89
34961;BMP280;30789;52.030;7.110;2022-10-16T13:44:00;100767.47;;;23.53
34961;BMP280;30789;52.030;7.110;2022-10-16T13:46:27;100764.19;;;24.27
34961;BMP280;30789;52.030;7.110;2022-10-16T13:48:58;100767.44;;;23.86
34961;BMP280;30789;52.030;7.110;2022-10-16T13:51:26;100771.94;;;23.28
34961;BMP280;30789;52.030;7.110;2022-10-16T13:53:55;100770.22;;;23.73
34961;BMP280;30789;52.030;7.110;2022-10-16T13:56:22;100766.25;;;23.79
34961;BMP280;30789;52.030;7.110;2022-10-16T13:58:59;100771.41;;;23.58
34961;BMP280;30789;52.030;7.110;2022-10-16T14:01:28;100767.09;;;23.68
34961;BMP280;30789;52.030;7.110;2022-10-16T14:04:01;100774.78;;;23.14
34961;BMP280;30789;52.030;7.110;2022-10-16T14:06:30;100773.50;;;23.31
34961;BMP280;30789;52.030;7.110;2022-10-16T14:08:59;100775.84;;;23.47
34961;BMP280;30789;52.030;7.110;2022-10-16T14:11:27;100771.78;;;23.08
34961;BMP280;30789;52.030;7.110;2022-10-16T14:13:54;100780.06;;;23.71